King Philippos — 9HA3023 — position and weather

sailwx.info

Track history (hours):
 
Tides and Currents Weather Stations Pressure Air Temp Water Temp Dewpoint Dewpoint Depression Visibility Wind Speed Wind Dir Waves Ship Positions

King Philippos

Last reported at 2015-Aug-20 14:33 UTC. Time now 2015-Sep-04 05:55 UTC.
Position N 01°15' E 104°02'.
Warning: this ship's position is 14 days out of date.

Length 250 m; draft 12.8 m.

Type: Tanker. MMSI: 229046000.

Date/timePositionNaut miles runAvg speedWind from/ knotsBaromVisibWave heightAir tempDewpointWater temp
2015-Aug-20 14:33N 01°15' E 104°02'3 1.1
2015-Aug-20 12:08N 01°17' E 103°60'0 0.1
2015-Aug-20 11:33N 01°17' E 103°60'0 0.0
2015-Aug-20 10:33N 01°17' E 103°60'0 0.0
2015-Aug-20 09:29N 01°17' E 103°60'0 0.0
2015-Aug-20 08:32N 01°17' E 103°60'0 0.0
2015-Aug-20 07:23N 01°17' E 103°60'0 0.0
2015-Aug-20 06:33N 01°17' E 103°60'0 0.1
2015-Aug-20 05:26N 01°17' E 103°60'0 0.1
2015-Aug-20 03:08N 01°17' E 103°59'0 0.2
2015-Aug-20 02:20N 01°17' E 103°60'0 0.1
2015-Aug-20 01:20N 01°17' E 103°60'0 0.0
2015-Aug-19 21:32N 01°17' E 103°60'0 0.0
2015-Aug-19 20:29N 01°17' E 103°60'0 0.1
2015-Aug-19 19:32N 01°17' E 103°60'0 0.2
2015-Aug-19 18:29N 01°17' E 103°59'0 0.1
2015-Aug-19 17:32N 01°17' E 103°59'0 0.1
2015-Aug-19 16:33N 01°17' E 103°59'1 1.2
2015-Aug-19 15:33N 01°16' E 103°59'5 4.9
2015-Aug-19 14:33N 01°17' E 104°03'8 7.8
2015-Aug-19 13:33N 01°13' E 103°56'15911.2
2015-Aug-18 23:26N 02°27' E 101°36'2211.7
2015-Aug-18 21:33N 02°39' E 101°18'2211.0
2015-Aug-18 19:33N 02°50' E 100°58'2110.6
2015-Aug-18 17:33N 03°04' E 100°42'  
Track history (hours):
 
Tides and Currents Weather Stations Pressure Air Temp Water Temp Dewpoint Dewpoint Depression Visibility Wind Speed Wind Dir Waves Ship Positions

King Philippos

Last reported at 2015-Aug-20 14:33 UTC. Time now 2015-Sep-04 05:55 UTC.
Position N 01°15' E 104°02'.
Warning: this ship's position is 14 days out of date.

Length 250 m; draft 12.8 m.

Type: Tanker. MMSI: 229046000.

Date/timePositionNaut miles runAvg speedWind from/ knotsBaromVisibWave heightAir tempDewpointWater temp
2015-Aug-20 14:33N 01°15' E 104°02'3 1.1
2015-Aug-20 12:08N 01°17' E 103°60'0 0.1
2015-Aug-20 11:33N 01°17' E 103°60'0 0.0
2015-Aug-20 10:33N 01°17' E 103°60'0 0.0
2015-Aug-20 09:29N 01°17' E 103°60'0 0.0
2015-Aug-20 08:32N 01°17' E 103°60'0 0.0
2015-Aug-20 07:23N 01°17' E 103°60'0 0.0
2015-Aug-20 06:33N 01°17' E 103°60'0 0.1
2015-Aug-20 05:26N 01°17' E 103°60'0 0.1
2015-Aug-20 03:08N 01°17' E 103°59'0 0.2
2015-Aug-20 02:20N 01°17' E 103°60'0 0.1
2015-Aug-20 01:20N 01°17' E 103°60'0 0.0
2015-Aug-19 21:32N 01°17' E 103°60'0 0.0
2015-Aug-19 20:29N 01°17' E 103°60'0 0.1
2015-Aug-19 19:32N 01°17' E 103°60'0 0.2
2015-Aug-19 18:29N 01°17' E 103°59'0 0.1
2015-Aug-19 17:32N 01°17' E 103°59'0 0.1
2015-Aug-19 16:33N 01°17' E 103°59'1 1.2
2015-Aug-19 15:33N 01°16' E 103°59'5 4.9
2015-Aug-19 14:33N 01°17' E 104°03'8 7.8
2015-Aug-19 13:33N 01°13' E 103°56'15911.2
2015-Aug-18 23:26N 02°27' E 101°36'2211.7
2015-Aug-18 21:33N 02°39' E 101°18'2211.0
2015-Aug-18 19:33N 02°50' E 100°58'2110.6
2015-Aug-18 17:33N 03°04' E 100°42'  

Dump ship's entire track history